createdAt,value
2019-04-21T00:01:39.918Z,12.20
2019-04-21T00:04:16.172Z,12.20
2019-04-21T00:07:00.438Z,12.20
2019-04-21T00:09:26.089Z,12.10
2019-04-21T00:11:55.288Z,12.00
2019-04-21T00:14:19.988Z,11.90
2019-04-21T00:16:47.997Z,11.80
2019-04-21T00:19:19.061Z,11.70
2019-04-21T00:21:51.837Z,11.70
2019-04-21T00:24:32.359Z,11.60
2019-04-21T00:27:05.546Z,11.50
2019-04-21T00:29:45.389Z,11.40
2019-04-21T00:32:08.743Z,11.20
2019-04-21T00:34:25.614Z,11.20
2019-04-21T00:37:08.005Z,11.10
2019-04-21T00:39:59.217Z,11.00
2019-04-21T00:42:19.454Z,10.90
2019-04-21T00:44:51.987Z,10.80
2019-04-21T00:47:27.814Z,10.80
2019-04-21T00:49:57.995Z,10.70
2019-04-21T00:52:52.564Z,10.70
2019-04-21T00:57:51.292Z,10.60
2019-04-21T01:00:22.262Z,10.50
2019-04-21T01:02:56.222Z,10.50
2019-04-21T01:05:21.471Z,10.40
2019-04-21T01:07:54.396Z,10.40
2019-04-21T01:10:14.679Z,10.30
2019-04-21T01:12:54.715Z,10.20
2019-04-21T01:15:30.599Z,10.20
2019-04-21T01:17:52.166Z,10.10
2019-04-21T01:20:16.459Z,10.10
2019-04-21T01:22:37.010Z,10.10
2019-04-21T01:25:15.921Z,10.00
2019-04-21T01:27:54.091Z,10.00
2019-04-21T01:30:28.366Z,10.00
2019-04-21T01:33:06.345Z,9.90
2019-04-21T01:35:35.609Z,9.90
2019-04-21T01:38:04.708Z,9.80
2019-04-21T01:43:04.953Z,9.70
2019-04-21T01:45:43.510Z,9.60
2019-04-21T01:48:13.403Z,9.60
2019-04-21T01:50:42.449Z,9.60
2019-04-21T01:53:27.424Z,9.50
2019-04-21T01:55:54.407Z,9.50
2019-04-21T01:58:19.509Z,9.50
2019-04-21T02:00:56.731Z,9.50
2019-04-21T02:03:50.124Z,9.40
2019-04-21T02:06:04.445Z,9.50
2019-04-21T02:08:34.694Z,9.40
2019-04-21T02:11:05.256Z,9.40
2019-04-21T02:13:44.292Z,9.40
2019-04-21T02:18:42.447Z,9.20
2019-04-21T02:21:00.134Z,9.30
2019-04-21T02:23:46.333Z,9.20
2019-04-21T02:26:16.451Z,9.20
2019-04-21T02:28:50.241Z,9.20
2019-04-21T02:31:29.033Z,9.20
2019-04-21T02:34:00.224Z,9.20
2019-04-21T02:36:40.397Z,9.20
2019-04-21T02:39:08.406Z,9.20
2019-04-21T02:44:08.316Z,9.00
2019-04-21T02:49:16.293Z,9.00
2019-04-21T02:56:48.850Z,8.90
2019-04-21T03:02:04.511Z,8.80
2019-04-21T03:04:42.536Z,8.80
2019-04-21T03:09:46.168Z,8.60
2019-04-21T03:12:32.168Z,8.60
2019-04-21T03:17:43.610Z,8.50
2019-04-21T03:20:00.207Z,8.40
2019-04-21T03:27:47.026Z,8.20
2019-04-21T03:37:37.045Z,8.10
2019-04-21T03:40:06.880Z,8.10
2019-04-21T03:42:44.986Z,8.10
2019-04-21T03:47:40.532Z,8.00
2019-04-21T03:52:46.283Z,8.00
2019-04-21T04:06:40.292Z,7.60
2019-04-21T04:11:39.768Z,7.40
2019-04-21T04:14:06.326Z,7.40
2019-04-21T04:16:30.517Z,7.40
2019-04-21T04:18:59.117Z,7.40
2019-04-21T04:26:31.453Z,7.30
2019-04-21T04:31:42.803Z,7.40
2019-04-21T04:34:21.008Z,7.40
2019-04-21T04:36:58.424Z,7.40
2019-04-21T04:39:26.028Z,7.40
2019-04-21T04:42:04.914Z,7.40
2019-04-21T04:44:39.414Z,7.30
2019-04-21T04:49:38.033Z,7.30
2019-04-21T04:52:07.809Z,7.30
2019-04-21T04:54:39.055Z,7.30
2019-04-21T04:57:13.842Z,7.30
2019-04-21T05:02:19.820Z,7.40
2019-04-21T05:04:37.550Z,7.40
2019-04-21T05:07:06.354Z,7.40
2019-04-21T05:09:33.552Z,7.40
2019-04-21T05:12:01.969Z,7.40
2019-04-21T05:14:41.106Z,7.40
2019-04-21T05:17:03.877Z,7.40
2019-04-21T05:19:41.476Z,7.50
2019-04-21T05:22:12.840Z,7.50
2019-04-21T05:24:30.309Z,7.50
2019-04-21T05:26:59.450Z,7.60
2019-04-21T05:29:49.241Z,7.70
2019-04-21T05:32:26.241Z,7.80
2019-04-21T05:34:55.849Z,7.80
2019-04-21T05:37:30.548Z,7.80
2019-04-21T05:39:57.245Z,7.90
2019-04-21T05:42:30.525Z,7.90
2019-04-21T05:45:07.691Z,8.10
2019-04-21T05:47:39.842Z,8.10
2019-04-21T05:50:07.850Z,8.20
2019-04-21T05:52:41.821Z,8.20
2019-04-21T05:55:18.127Z,8.30
2019-04-21T05:57:46.611Z,8.40
2019-04-21T06:00:34.542Z,8.40
2019-04-21T06:02:49.579Z,8.50
2019-04-21T06:07:55.323Z,8.80
2019-04-21T06:10:27.419Z,8.80
2019-04-21T06:12:59.851Z,8.90
2019-04-21T06:15:30.205Z,9.00
2019-04-21T06:17:56.349Z,9.10
2019-04-21T06:20:30.366Z,9.30
2019-04-21T06:22:56.836Z,9.30
2019-04-21T06:25:48.920Z,9.50
2019-04-21T06:28:08.996Z,9.50
2019-04-21T06:30:47.012Z,9.60
2019-04-21T06:32:59.518Z,9.70
2019-04-21T06:35:48.494Z,9.80
2019-04-21T06:38:13.207Z,9.90
2019-04-21T06:40:50.121Z,10.00
2019-04-21T06:43:25.844Z,10.10
2019-04-21T06:46:02.278Z,10.10
2019-04-21T06:48:21.095Z,10.20
2019-04-21T06:50:57.152Z,10.20
2019-04-21T06:53:20.679Z,10.30
2019-04-21T06:55:49.710Z,10.40
2019-04-21T06:58:22.428Z,10.40
2019-04-21T07:00:43.022Z,10.50
2019-04-21T07:03:30.942Z,10.60
2019-04-21T07:05:57.576Z,10.70
2019-04-21T07:10:53.315Z,10.90
2019-04-21T07:13:22.049Z,10.90
2019-04-21T07:16:01.797Z,11.00
2019-04-21T07:18:27.305Z,11.10
2019-04-21T07:21:01.190Z,11.20
2019-04-21T07:23:30.275Z,11.20
2019-04-21T07:25:58.204Z,11.30
2019-04-21T07:28:31.534Z,11.40
2019-04-21T07:31:03.615Z,11.50
2019-04-21T07:33:49.281Z,11.50
2019-04-21T07:36:01.504Z,11.70
2019-04-21T07:38:27.565Z,11.80
2019-04-21T07:40:58.727Z,11.80
2019-04-21T07:43:33.192Z,11.80
2019-04-21T07:45:58.515Z,11.90
2019-04-21T07:48:40.205Z,12.10
2019-04-21T07:51:20.729Z,12.20
2019-04-21T07:53:55.738Z,12.30
2019-04-21T07:56:08.789Z,12.40
2019-04-21T07:58:56.266Z,12.60
2019-04-21T08:01:27.439Z,12.70
2019-04-21T08:03:54.436Z,12.80
2019-04-21T08:06:29.454Z,13.00
2019-04-21T08:08:57.144Z,13.10
2019-04-21T08:11:21.002Z,13.30
2019-04-21T08:13:55.047Z,13.40
2019-04-21T08:16:24.210Z,13.60
2019-04-21T08:18:52.101Z,13.70
2019-04-21T08:21:28.283Z,13.80
2019-04-21T08:23:55.277Z,13.90
2019-04-21T08:26:24.292Z,14.10
2019-04-21T08:29:04.396Z,14.20
2019-04-21T08:31:34.178Z,14.40
2019-04-21T08:34:03.310Z,14.50
2019-04-21T08:36:28.423Z,14.60
2019-04-21T08:38:58.333Z,14.70
2019-04-21T08:41:26.456Z,14.90
2019-04-21T08:43:58.896Z,15.00
2019-04-21T08:46:34.437Z,15.10
2019-04-21T08:49:06.244Z,15.10
2019-04-21T08:51:43.728Z,15.20
2019-04-21T08:54:11.883Z,15.30
2019-04-21T08:56:52.647Z,15.40
2019-04-21T09:01:57.027Z,15.70
2019-04-21T09:04:29.125Z,15.80
2019-04-21T09:07:21.439Z,15.80
2019-04-21T09:09:33.996Z,15.90
2019-04-21T09:12:04.361Z,16.10
2019-04-21T09:14:30.992Z,16.20
2019-04-21T09:17:05.189Z,16.40
2019-04-21T09:19:47.049Z,16.50
2019-04-21T09:22:05.716Z,16.70
2019-04-21T09:24:33.082Z,16.80
2019-04-21T09:27:03.840Z,16.90
2019-04-21T09:29:29.750Z,17.00
2019-04-21T09:31:52.997Z,17.20
2019-04-21T09:34:24.834Z,17.30
2019-04-21T09:36:58.769Z,17.40
2019-04-21T09:39:25.570Z,17.50
2019-04-21T09:41:56.536Z,17.60
2019-04-21T09:44:27.541Z,17.80
2019-04-21T09:46:54.881Z,17.80
2019-04-21T09:49:27.158Z,17.90
2019-04-21T09:51:55.268Z,18.10
2019-04-21T09:54:29.835Z,18.20
2019-04-21T09:57:01.636Z,18.30
2019-04-21T09:59:32.122Z,18.50
2019-04-21T10:02:06.403Z,18.60
2019-04-21T10:04:29.005Z,18.80
2019-04-21T10:06:58.740Z,18.90
2019-04-21T10:09:29.163Z,19.00
2019-04-21T10:11:57.656Z,19.10
2019-04-21T10:14:26.441Z,19.40
2019-04-21T10:17:13.170Z,19.50
2019-04-21T10:19:42.052Z,19.70
2019-04-21T10:22:12.634Z,19.70
2019-04-21T10:24:42.491Z,19.80
2019-04-21T10:27:14.637Z,20.00
2019-04-21T10:29:43.544Z,20.10
2019-04-21T10:32:13.388Z,20.20
2019-04-21T10:34:43.380Z,20.30
2019-04-21T10:37:13.298Z,20.50
2019-04-21T10:39:42.476Z,20.70
2019-04-21T10:42:11.567Z,20.80
2019-04-21T10:44:41.009Z,20.90
2019-04-21T10:47:11.045Z,21.00
2019-04-21T10:49:40.313Z,21.10
2019-04-21T10:52:13.365Z,21.20
2019-04-21T10:55:08.430Z,21.40
2019-04-21T10:57:26.427Z,21.50
2019-04-21T10:59:56.454Z,21.60
2019-04-21T11:02:43.310Z,21.70
2019-04-21T11:05:14.645Z,21.80
2019-04-21T11:08:03.703Z,21.90
2019-04-21T11:10:18.272Z,22.00
2019-04-21T11:12:47.908Z,22.10
2019-04-21T11:15:17.149Z,22.20
2019-04-21T11:17:48.855Z,22.40
2019-04-21T11:20:19.086Z,22.50
2019-04-21T11:22:49.224Z,22.50
2019-04-21T11:25:18.128Z,22.70
2019-04-21T11:27:47.028Z,22.80
2019-04-21T11:30:15.900Z,22.80
2019-04-21T11:32:46.317Z,22.80
2019-04-21T11:35:15.633Z,22.90
2019-04-21T11:37:46.202Z,23.00
2019-04-21T11:40:17.836Z,23.00
2019-04-21T11:42:46.282Z,23.10
2019-04-21T11:45:32.883Z,23.10
2019-04-21T11:48:20.203Z,23.20
2019-04-21T11:50:50.917Z,23.40
2019-04-21T11:53:21.044Z,23.40
2019-04-21T11:55:53.261Z,23.40
2019-04-21T11:58:23.672Z,23.50
2019-04-21T12:00:57.939Z,23.60
2019-04-21T12:03:27.501Z,23.60
2019-04-21T12:05:59.599Z,23.60
2019-04-21T12:08:39.288Z,23.70
2019-04-21T12:11:03.438Z,23.80
2019-04-21T12:13:32.373Z,23.90
2019-04-21T12:16:01.306Z,23.90
2019-04-21T12:18:31.721Z,24.00
2019-04-21T12:21:01.180Z,24.00
2019-04-21T12:23:34.276Z,24.10
2019-04-21T12:26:05.105Z,24.20
2019-04-21T12:28:39.708Z,24.20
2019-04-21T12:31:10.049Z,24.30
2019-04-21T12:33:43.872Z,24.30
2019-04-21T12:36:13.686Z,24.30
2019-04-21T12:38:48.969Z,24.40
2019-04-21T12:41:13.025Z,24.50
2019-04-21T12:43:44.565Z,24.60
2019-04-21T12:46:14.306Z,24.60
2019-04-21T12:48:44.134Z,24.60
2019-04-21T12:51:15.579Z,24.80
2019-04-21T12:53:45.582Z,24.90
2019-04-21T12:56:15.742Z,25.00
2019-04-21T12:58:47.119Z,25.10
2019-04-21T13:01:16.765Z,25.20
2019-04-21T13:03:46.236Z,25.30
2019-04-21T13:06:19.271Z,25.40
2019-04-21T13:08:54.516Z,25.40
2019-04-21T13:11:23.458Z,25.40
2019-04-21T13:13:53.675Z,25.40
2019-04-21T13:16:23.349Z,25.30
2019-04-21T13:18:55.312Z,25.20
2019-04-21T13:21:24.356Z,25.30
2019-04-21T13:23:54.864Z,25.50
2019-04-21T13:26:34.450Z,25.60
2019-04-21T13:28:54.239Z,25.70
2019-04-21T13:31:24.544Z,25.80
2019-04-21T13:33:53.117Z,25.90
2019-04-21T13:36:21.703Z,25.90
2019-04-21T13:39:24.955Z,25.90
2019-04-21T13:41:41.309Z,25.90
2019-04-21T13:44:17.312Z,25.90
2019-04-21T13:46:49.013Z,25.90
2019-04-21T13:49:21.135Z,26.10
2019-04-21T13:51:50.148Z,26.20
2019-04-21T13:54:19.845Z,26.30
2019-04-21T13:56:48.496Z,26.30
2019-04-21T13:59:18.278Z,26.50
2019-04-21T14:01:47.983Z,26.70
2019-04-21T14:04:17.704Z,27.00
2019-04-21T14:06:48.364Z,27.40
2019-04-21T14:09:17.716Z,27.60
2019-04-21T14:11:47.426Z,27.90
2019-04-21T14:14:16.593Z,28.30
2019-04-21T14:16:48.078Z,28.60
2019-04-21T14:19:17.272Z,28.90
2019-04-21T14:21:49.163Z,29.30
2019-04-21T14:24:17.206Z,29.60
2019-04-21T14:26:47.959Z,29.90
2019-04-21T14:29:17.559Z,30.00
2019-04-21T14:31:48.565Z,30.30
2019-04-21T14:34:21.838Z,30.70
2019-04-21T14:36:52.961Z,31.00
2019-04-21T14:39:22.949Z,31.40
2019-04-21T14:41:52.389Z,31.90
2019-04-21T14:44:24.911Z,32.10
2019-04-21T14:47:00.821Z,32.50
2019-04-21T14:49:35.295Z,32.70
2019-04-21T14:52:15.079Z,33.10
2019-04-21T14:54:51.677Z,33.50
2019-04-21T14:57:23.141Z,33.50
2019-04-21T14:59:53.099Z,33.60
2019-04-21T15:02:22.332Z,33.60
2019-04-21T15:04:51.570Z,33.50
2019-04-21T15:07:21.356Z,33.50
2019-04-21T15:10:02.471Z,33.70
2019-04-21T15:12:21.062Z,33.80
2019-04-21T15:14:51.913Z,33.80
2019-04-21T15:17:24.368Z,33.90
2019-04-21T15:19:59.630Z,34.00
2019-04-21T15:22:26.220Z,33.80
2019-04-21T15:24:58.496Z,33.70
2019-04-21T15:27:28.127Z,33.70
2019-04-21T15:29:56.740Z,34.00
2019-04-21T15:32:26.930Z,34.20
2019-04-21T15:34:56.148Z,34.20
2019-04-21T15:37:26.489Z,34.30
2019-04-21T15:39:58.522Z,34.40
2019-04-21T15:42:30.572Z,34.60
2019-04-21T15:45:00.918Z,34.70
2019-04-21T15:47:29.584Z,34.60
2019-04-21T15:50:04.690Z,34.70
2019-04-21T15:52:29.963Z,34.90
2019-04-21T15:55:08.384Z,34.80
2019-04-21T15:57:52.517Z,34.90
2019-04-21T16:00:42.694Z,35.00
2019-04-21T16:03:12.871Z,35.10
2019-04-21T16:05:44.545Z,35.00
2019-04-21T16:08:14.179Z,35.00
2019-04-21T16:10:48.994Z,35.00
2019-04-21T16:13:16.866Z,35.10
2019-04-21T16:15:46.310Z,34.90
2019-04-21T16:18:16.079Z,34.70
2019-04-21T16:20:45.958Z,34.80
2019-04-21T16:23:18.213Z,35.00
2019-04-21T16:25:48.698Z,35.20
2019-04-21T16:28:19.281Z,35.10
2019-04-21T16:30:48.996Z,35.20
2019-04-21T16:33:20.977Z,35.20
2019-04-21T16:35:51.740Z,34.90
2019-04-21T16:38:21.645Z,34.70
2019-04-21T16:40:57.716Z,34.70
2019-04-21T16:43:22.880Z,34.80
2019-04-21T16:45:56.891Z,34.70
2019-04-21T16:48:27.249Z,34.60
2019-04-21T16:50:57.406Z,34.30
2019-04-21T16:53:30.244Z,34.30
2019-04-21T16:56:13.018Z,34.30
2019-04-21T16:58:46.199Z,34.20
2019-04-21T17:01:19.834Z,34.10
2019-04-21T17:04:08.561Z,33.80
2019-04-21T17:06:38.466Z,33.70
2019-04-21T17:09:08.590Z,33.60
2019-04-21T17:11:43.711Z,33.40
2019-04-21T17:14:27.273Z,33.20
2019-04-21T17:17:08.687Z,33.10
2019-04-21T17:19:20.225Z,33.10
2019-04-21T17:21:45.706Z,33.10
2019-04-21T17:24:20.057Z,33.20
2019-04-21T17:26:53.288Z,33.20
2019-04-21T17:29:24.900Z,33.20
2019-04-21T17:31:57.275Z,33.10
2019-04-21T17:34:30.084Z,33.10
2019-04-21T17:36:57.482Z,32.80
2019-04-21T17:39:26.984Z,32.60
2019-04-21T17:42:13.021Z,32.30
2019-04-21T17:44:29.669Z,32.10
2019-04-21T17:47:02.114Z,31.90
2019-04-21T17:49:30.806Z,31.60
2019-04-21T17:52:05.995Z,31.00
2019-04-21T17:54:45.287Z,30.40
2019-04-21T17:57:30.255Z,30.10
2019-04-21T18:00:09.753Z,29.90
2019-04-21T18:02:38.201Z,29.60
2019-04-21T18:05:05.430Z,29.40
2019-04-21T18:07:47.811Z,29.20
2019-04-21T18:10:04.497Z,28.90
2019-04-21T18:12:33.783Z,28.70
2019-04-21T18:14:56.753Z,28.30
2019-04-21T18:17:20.435Z,28.00
2019-04-21T18:19:51.827Z,27.70
2019-04-21T18:22:43.549Z,27.30
2019-04-21T18:25:31.740Z,26.80
2019-04-21T18:27:50.284Z,26.00
2019-04-21T18:30:48.870Z,25.40
2019-04-21T18:33:25.086Z,24.80
2019-04-21T18:36:00.190Z,24.10
2019-04-21T18:39:12.119Z,23.60
2019-04-21T18:41:42.681Z,23.10
2019-04-21T18:44:31.944Z,22.60
2019-04-21T18:47:05.091Z,22.10
2019-04-21T18:49:17.390Z,21.70
2019-04-21T18:51:57.308Z,21.40
2019-04-21T18:54:39.174Z,21.10
2019-04-21T18:57:04.425Z,20.80
2019-04-21T18:59:31.517Z,20.60
2019-04-21T19:02:02.441Z,20.40
2019-04-21T19:04:30.020Z,20.20
2019-04-21T19:07:14.217Z,20.00
2019-04-21T19:12:25.331Z,19.70
2019-04-21T19:14:50.570Z,19.60
2019-04-21T19:17:48.722Z,19.50
2019-04-21T19:19:56.358Z,19.50
2019-04-21T19:22:23.053Z,19.40
2019-04-21T19:24:55.625Z,19.30
2019-04-21T19:30:05.380Z,19.10
2019-04-21T19:32:28.863Z,18.90
2019-04-21T19:34:47.395Z,18.80
2019-04-21T19:37:20.441Z,18.70
2019-04-21T19:40:03.284Z,18.70
2019-04-21T19:42:29.110Z,18.60
2019-04-21T19:45:06.121Z,18.60
2019-04-21T19:47:41.826Z,18.50
2019-04-21T19:50:11.820Z,18.40
2019-04-21T19:52:34.587Z,18.30
2019-04-21T19:54:54.999Z,18.30
2019-04-21T19:57:24.987Z,18.20
2019-04-21T20:00:01.386Z,18.20
2019-04-21T20:02:28.130Z,18.20
2019-04-21T20:05:03.076Z,18.20
2019-04-21T20:07:44.414Z,18.10
2019-04-21T20:10:25.245Z,18.00
2019-04-21T20:12:47.504Z,17.90
2019-04-21T20:15:26.591Z,17.90
2019-04-21T20:17:42.190Z,17.80
2019-04-21T20:20:00.478Z,17.70
2019-04-21T20:22:36.391Z,17.60
2019-04-21T20:25:08.227Z,17.50
2019-04-21T20:27:42.990Z,17.50
2019-04-21T20:30:25.981Z,17.40
2019-04-21T20:32:55.982Z,17.20
2019-04-21T20:37:52.555Z,16.90
2019-04-21T20:40:25.317Z,16.70
2019-04-21T20:43:07.417Z,16.60
2019-04-21T20:45:47.325Z,16.50
2019-04-21T20:47:48.797Z,16.40
2019-04-21T20:50:29.833Z,16.30
2019-04-21T20:53:06.032Z,16.20
2019-04-21T20:55:26.485Z,16.10
2019-04-21T20:57:59.711Z,16.10
2019-04-21T21:00:45.641Z,16.00
2019-04-21T21:03:07.032Z,15.90
2019-04-21T21:05:34.853Z,15.90
2019-04-21T21:08:11.432Z,15.70
2019-04-21T21:10:36.784Z,15.60
2019-04-21T21:13:20.574Z,15.60
2019-04-21T21:15:50.142Z,15.50
2019-04-21T21:18:26.997Z,15.40
2019-04-21T21:20:43.070Z,15.40
2019-04-21T21:23:09.227Z,15.30
2019-04-21T21:25:51.098Z,15.30
2019-04-21T21:28:09.235Z,15.20
2019-04-21T21:30:38.616Z,15.20
2019-04-21T21:33:18.507Z,15.10
2019-04-21T21:35:46.201Z,15.00
2019-04-21T21:38:31.539Z,14.80
2019-04-21T21:40:53.879Z,14.70
2019-04-21T21:43:19.450Z,14.70
2019-04-21T21:45:50.000Z,14.60
2019-04-21T21:48:26.429Z,14.60
2019-04-21T21:50:54.174Z,14.60
2019-04-21T21:53:21.490Z,14.60
2019-04-21T21:55:51.014Z,14.50
2019-04-21T21:58:26.535Z,14.50
2019-04-21T22:00:58.933Z,14.40
2019-04-21T22:03:31.795Z,14.40
2019-04-21T22:06:01.849Z,14.30
2019-04-21T22:08:28.278Z,14.30
2019-04-21T22:10:57.443Z,14.20
2019-04-21T22:13:34.048Z,14.10
2019-04-21T22:16:02.965Z,14.10
2019-04-21T22:18:43.958Z,14.00
2019-04-21T22:21:10.251Z,14.00
2019-04-21T22:23:42.748Z,13.90
2019-04-21T22:25:59.361Z,13.80
2019-04-21T22:28:29.619Z,13.80
2019-04-21T22:30:59.015Z,13.70
2019-04-21T22:33:34.489Z,13.70
2019-04-21T22:36:18.233Z,13.60
2019-04-21T22:39:15.081Z,13.60
2019-04-21T22:41:33.719Z,13.50
2019-04-21T22:43:59.336Z,13.40
2019-04-21T22:46:28.544Z,13.40
2019-04-21T22:49:03.778Z,13.30
2019-04-21T22:51:37.453Z,13.30
2019-04-21T22:54:04.048Z,13.20
2019-04-21T22:56:34.107Z,13.10
2019-04-21T22:59:10.966Z,13.10
2019-04-21T23:01:39.156Z,13.10
2019-04-21T23:04:08.211Z,13.00
2019-04-21T23:06:39.261Z,13.00
2019-04-21T23:09:09.038Z,13.00
2019-04-21T23:11:43.680Z,12.90
2019-04-21T23:14:13.130Z,12.90
2019-04-21T23:16:43.698Z,12.90
2019-04-21T23:19:28.277Z,12.80
2019-04-21T23:22:03.529Z,12.80
2019-04-21T23:24:38.526Z,12.70
2019-04-21T23:26:56.104Z,12.60
2019-04-21T23:29:43.833Z,12.60
2019-04-21T23:31:59.349Z,12.50
2019-04-21T23:34:23.501Z,12.50
2019-04-21T23:36:53.166Z,12.50
2019-04-21T23:39:22.720Z,12.50
2019-04-21T23:41:50.629Z,12.40
2019-04-21T23:44:18.826Z,12.40
2019-04-21T23:46:51.097Z,12.40
2019-04-21T23:49:34.317Z,12.30
2019-04-21T23:52:00.326Z,12.30
2019-04-21T23:54:23.131Z,12.20
2019-04-21T23:56:51.893Z,12.20
2019-04-21T23:59:22.595Z,12.10
